Capitol Logistics 259


KMIA
Miami International Airport
Miami, Florida, US
CYHZ
Robert L. Stanfield International Airport
Halifax, , CA

Route Details

Aircraft Information
Primary: Boeing 767-300BDSF
Backup: Not Available
Route Data
Distance: 1403nm
Sched. Duration: 3h 29m
Avg. Duration: 3h 36m (+7m)
Times Flown: 6
Recm'd Route: PADUS2 PADUS PERMT AR16 ILM J174 RIFLE J62 ACK J585 DAVES TUSKY PEGGY3
Planned Altitude: 33,000ft
Origin Wx: KMIA 280053Z COR 26006KT 10SM CLR 25/19 A3008 RMK AO2 SLP184 T02500194 $
Dest. Wx: CYHZ 280100Z 01013KT 15SM OVC017 M03/M05 A2997 RMK SC8 SLP156
Notes:

Financial History
Total Freight: 241,346lbs
Average Load: 40,224lbs/flt
Fuel Used: 200,786lbs
Avg. Fuel Used: 33,464lbs/flt
Fuel Expense: $246,967
Avg. Fuel Expense: $41,161
Avg. Fuel Cost: $1.23/lbs
Total Gross Income: $351,413
Pilot Pay: $1,354
Total Expenses: $38,265
Total Revenue: $60,429
Average Revenue: $58,568.84